Time;durP1;ratioP1;P1;durP2;ratioP2;P2;SDS_P1;SDS_P2;PMS_P1;PMS_P2;Temp;Humidity;BMP_temperature;BMP_pressure;BME280_temperature;BME280_humidity;BME280_pressure;Samples;Min_cycle;Max_cycle;Signal;HPM_P1;HPM_P2
2021/04/28 00:00:21;;;;;;;7.83;5.33;;;8.30;99.90;;;;;;5082196;28;20212;-77
2021/04/28 00:02:48;;;;;;;11.17;6.20;;;8.30;99.90;;;;;;5081751;28;20226;-77
2021/04/28 00:05:15;;;;;;;6.70;5.63;;;8.30;99.90;;;;;;5082320;28;20204;-77
2021/04/28 00:07:42;;;;;;;8.13;5.60;;;8.30;99.90;;;;;;5082367;28;20204;-78
2021/04/28 00:10:11;;;;;;;7.33;5.40;;;8.30;99.90;;;;;;5082782;28;20196;-77
2021/04/28 00:12:38;;;;;;;7.67;5.83;;;8.20;99.90;;;;;;5099328;28;20347;-77
2021/04/28 00:15:07;;;;;;;11.50;6.00;;;8.20;99.90;;;;;;5102127;28;20200;-77
2021/04/28 00:17:34;;;;;;;7.27;5.30;;;8.20;99.90;;;;;;5102952;28;20219;-77
2021/04/28 00:20:00;;;;;;;7.60;6.03;;;8.10;99.90;;;;;;5103259;28;20200;-77
2021/04/28 00:22:26;;;;;;;7.77;6.00;;;8.10;99.90;;;;;;5083806;28;20219;-76
2021/04/28 00:24:52;;;;;;;7.13;5.80;;;8.10;99.90;;;;;;5082267;28;20205;-76
2021/04/28 00:27:19;;;;;;;8.37;6.17;;;8.10;99.90;;;;;;5082051;28;20209;-76
2021/04/28 00:29:45;;;;;;;9.27;5.93;;;8.00;99.90;;;;;;5081619;28;20237;-76
2021/04/28 00:32:14;;;;;;;9.80;6.37;;;8.00;99.90;;;;;;5082630;28;20196;-78
2021/04/28 00:34:40;;;;;;;10.30;6.70;;;8.00;99.90;;;;;;5082168;28;20216;-77
2021/04/28 00:37:06;;;;;;;7.67;6.00;;;7.90;99.90;;;;;;5081392;28;20620;-77
2021/04/28 00:39:32;;;;;;;6.93;5.83;;;7.90;99.90;;;;;;5081895;28;20804;-77
2021/04/28 00:41:59;;;;;;;8.10;5.93;;;7.80;99.90;;;;;;5082349;28;20240;-76
2021/04/28 00:44:25;;;;;;;9.33;6.43;;;7.70;99.90;;;;;;5081664;28;20200;-77
2021/04/28 00:46:51;;;;;;;10.73;6.50;;;7.70;99.90;;;;;;5086463;28;20860;-77
2021/04/28 00:49:19;;;;;;;6.80;5.77;;;7.70;99.90;;;;;;5102194;28;20336;-76
2021/04/28 00:51:45;;;;;;;8.57;5.93;;;7.70;99.90;;;;;;5091528;28;20289;-77
2021/04/28 00:54:11;;;;;;;8.83;5.80;;;7.70;99.90;;;;;;5082658;28;20254;-77
2021/04/28 00:56:37;;;;;;;12.47;7.27;;;7.70;99.90;;;;;;5081372;28;20936;-76
2021/04/28 00:59:04;;;;;;;8.77;6.53;;;7.60;99.90;;;;;;5085983;28;20227;-75
2021/04/28 01:01:30;;;;;;;10.63;7.00;;;7.60;99.90;;;;;;5102485;28;20196;-77
2021/04/28 01:03:57;;;;;;;9.03;6.03;;;7.60;99.90;;;;;;5101339;28;20199;-77
2021/04/28 01:06:25;;;;;;;9.87;6.57;;;7.60;99.90;;;;;;5094238;28;20216;-78
2021/04/28 01:08:52;;;;;;;10.47;7.27;;;7.50;99.90;;;;;;5081186;28;20574;-77
2021/04/28 01:11:18;;;;;;;9.60;6.63;;;7.50;99.90;;;;;;5081113;28;20296;-77
2021/04/28 01:13:45;;;;;;;8.77;7.13;;;7.50;99.90;;;;;;5081484;28;20193;-78
2021/04/28 01:16:11;;;;;;;10.43;6.40;;;7.50;99.90;;;;;;5081456;28;20200;-78
2021/04/28 01:18:38;;;;;;;7.43;6.13;;;7.40;99.90;;;;;;5080748;28;20239;-77
2021/04/28 01:21:05;;;;;;;8.33;6.43;;;7.40;99.90;;;;;;5081933;28;20200;-78
2021/04/28 01:23:32;;;;;;;8.33;6.33;;;7.40;99.90;;;;;;5081605;28;20246;-76
2021/04/28 01:26:00;;;;;;;10.37;7.10;;;7.40;99.90;;;;;;5080963;28;20648;-76
2021/04/28 01:28:27;;;;;;;10.57;6.70;;;7.30;99.90;;;;;;5085457;28;20204;-76
2021/04/28 01:30:57;;;;;;;8.87;6.93;;;7.30;99.90;;;;;;5103288;28;20214;-76
2021/04/28 01:33:27;;;;;;;9.10;6.67;;;7.20;99.90;;;;;;5105329;28;20213;-77
2021/04/28 01:35:56;;;;;;;8.57;6.63;;;7.10;99.90;;;;;;5105877;28;20217;-77
2021/04/28 01:38:24;;;;;;;10.23;6.97;;;7.00;99.90;;;;;;5103017;28;20965;-77
2021/04/28 01:40:51;;;;;;;9.47;6.70;;;7.00;99.90;;;;;;5104582;28;20199;-76
2021/04/28 01:43:19;;;;;;;9.90;7.33;;;6.90;99.90;;;;;;5103871;28;20917;-76
2021/04/28 01:45:48;;;;;;;10.23;6.93;;;6.90;99.90;;;;;;5104156;28;20310;-75
2021/04/28 01:48:16;;;;;;;11.50;7.33;;;6.80;99.90;;;;;;5104994;28;20196;-75
2021/04/28 01:50:43;;;;;;;9.77;7.70;;;6.80;99.90;;;;;;5105469;28;20200;-75
2021/04/28 01:53:10;;;;;;;12.10;6.97;;;6.80;99.90;;;;;;5105130;28;20195;-76
2021/04/28 01:55:37;;;;;;;9.07;7.13;;;6.70;99.90;;;;;;5100287;28;20197;-76
2021/04/28 01:58:05;;;;;;;8.80;6.83;;;6.60;99.90;;;;;;5084763;28;20220;-76
2021/04/28 02:00:31;;;;;;;8.97;7.37;;;6.70;99.90;;;;;;5084504;28;20207;-75
2021/04/28 02:02:57;;;;;;;8.13;7.00;;;6.60;99.90;;;;;;5084738;28;20207;-76
2021/04/28 02:05:24;;;;;;;8.70;6.97;;;6.60;99.90;;;;;;5084925;28;20216;-75
2021/04/28 02:07:51;;;;;;;7.57;6.60;;;6.60;99.90;;;;;;5083867;28;20200;-76
2021/04/28 02:10:17;;;;;;;7.63;6.50;;;6.50;99.90;;;;;;5084671;28;20193;-75
2021/04/28 02:12:47;;;;;;;9.57;6.93;;;6.50;99.90;;;;;;5084857;28;20204;-75
2021/04/28 02:15:16;;;;;;;10.20;6.80;;;6.50;99.90;;;;;;5084710;28;20554;-76
2021/04/28 02:17:44;;;;;;;8.93;7.63;;;6.40;99.90;;;;;;5084742;28;20239;-76
2021/04/28 02:20:15;;;;;;;9.60;7.67;;;6.40;99.90;;;;;;5085344;28;20197;-75
2021/04/28 02:22:42;;;;;;;10.30;7.93;;;6.40;99.90;;;;;;5084828;28;20195;-76
2021/04/28 02:25:10;;;;;;;12.77;8.07;;;6.40;99.90;;;;;;5084762;28;20617;-76
2021/04/28 02:27:38;;;;;;;11.13;7.47;;;6.40;99.90;;;;;;5084560;28;20200;-76
2021/04/28 02:30:06;;;;;;;8.57;7.67;;;6.30;99.90;;;;;;5085083;28;20211;-76
2021/04/28 02:32:33;;;;;;;7.77;6.60;;;6.30;99.90;;;;;;5085299;28;20204;-75
2021/04/28 02:34:59;;;;;;;10.17;7.50;;;6.30;99.90;;;;;;5084537;28;20282;-76
2021/04/28 02:37:28;;;;;;;14.13;8.73;;;6.30;99.90;;;;;;5083659;28;20315;-76
2021/04/28 02:40:00;;;;;;;9.27;7.57;;;6.30;99.90;;;;;;5084254;28;20233;-76
2021/04/28 02:42:27;;;;;;;9.90;8.17;;;6.20;99.90;;;;;;5084188;28;20243;-75
2021/04/28 02:44:54;;;;;;;10.33;8.43;;;6.30;99.90;;;;;;5084370;28;20204;-76
2021/04/28 02:47:23;;;;;;;10.73;8.57;;;6.30;99.90;;;;;;5084429;28;20207;-75
2021/04/28 02:49:51;;;;;;;14.77;7.87;;;6.30;99.90;;;;;;5083551;28;20314;-76
2021/04/28 02:52:18;;;;;;;12.27;7.80;;;6.30;99.90;;;;;;5084291;28;20213;-76
2021/04/28 02:54:44;;;;;;;8.03;7.20;;;6.30;99.90;;;;;;5083913;28;20208;-75
2021/04/28 02:57:12;;;;;;;10.50;7.43;;;6.30;99.90;;;;;;5083738;28;20204;-75
2021/04/28 02:59:38;;;;;;;9.40;7.90;;;6.20;99.90;;;;;;5083992;28;20211;-75
2021/04/28 03:02:07;;;;;;;9.57;8.20;;;6.20;99.90;;;;;;5083163;28;20608;-76
2021/04/28 03:04:37;;;;;;;11.97;8.47;;;6.20;99.90;;;;;;5082683;28;20835;-76
2021/04/28 03:07:04;;;;;;;10.03;8.10;;;6.20;99.90;;;;;;5083790;28;20197;-75
2021/04/28 03:09:31;;;;;;;11.13;8.17;;;6.10;99.90;;;;;;5084170;28;20204;-76
2021/04/28 03:11:57;;;;;;;13.60;8.90;;;6.10;99.90;;;;;;5083536;28;20220;-75
2021/04/28 03:14:24;;;;;;;10.97;7.90;;;6.10;99.90;;;;;;5084509;28;20294;-75
2021/04/28 03:16:50;;;;;;;10.57;8.50;;;6.20;99.90;;;;;;5084378;28;20204;-74
2021/04/28 03:19:18;;;;;;;12.17;7.80;;;6.20;99.90;;;;;;5082718;28;20224;-75
2021/04/28 03:21:48;;;;;;;9.03;8.10;;;6.20;99.90;;;;;;5083680;28;20200;-75
2021/04/28 03:24:16;;;;;;;8.90;7.97;;;6.10;99.90;;;;;;5083958;28;20620;-75
2021/04/28 03:26:43;;;;;;;10.50;7.73;;;6.10;99.90;;;;;;5082299;28;20213;-75
2021/04/28 03:29:09;;;;;;;10.27;7.97;;;6.20;99.90;;;;;;5083786;28;20624;-75
2021/04/28 03:31:36;;;;;;;10.87;8.53;;;6.30;99.90;;;;;;5082656;28;20193;-76
2021/04/28 03:34:02;;;;;;;12.50;8.97;;;6.20;99.90;;;;;;5083688;28;20235;-75
2021/04/28 03:36:29;;;;;;;10.40;8.60;;;6.20;99.90;;;;;;5082987;28;20196;-75
2021/04/28 03:38:55;;;;;;;8.67;7.77;;;6.20;99.90;;;;;;5082900;28;20247;-75
2021/04/28 03:41:23;;;;;;;10.53;8.27;;;6.20;99.90;;;;;;5083451;28;20474;-74
2021/04/28 03:43:49;;;;;;;8.87;7.60;;;6.20;99.90;;;;;;5083241;28;20243;-75
2021/04/28 03:46:16;;;;;;;9.87;8.23;;;6.10;99.90;;;;;;5082395;28;20204;-75
2021/04/28 03:48:42;;;;;;;15.00;8.63;;;6.10;99.90;;;;;;5083482;28;20244;-74
2021/04/28 03:51:09;;;;;;;9.13;7.63;;;6.10;99.90;;;;;;5082652;28;20197;-75
2021/04/28 03:53:35;;;;;;;9.00;8.03;;;6.10;99.90;;;;;;5093477;28;20224;-75
2021/04/28 03:56:01;;;;;;;9.97;8.13;;;6.10;99.90;;;;;;5103967;28;20298;-76
2021/04/28 03:58:29;;;;;;;11.77;8.60;;;6.00;99.90;;;;;;5102967;28;20224;-76
2021/04/28 04:00:55;;;;;;;12.83;8.63;;;6.10;99.90;;;;;;5093289;28;20616;-75
2021/04/28 04:03:21;;;;;;;10.23;8.23;;;6.10;99.90;;;;;;5082941;28;20595;-74
2021/04/28 04:05:48;;;;;;;10.57;8.27;;;6.10;99.90;;;;;;5082889;28;20204;-74
2021/04/28 04:08:15;;;;;;;8.90;7.80;;;6.10;99.90;;;;;;5081448;28;21127;-75
2021/04/28 04:10:41;;;;;;;9.33;7.80;;;6.10;99.90;;;;;;5082528;28;20838;-76
2021/04/28 04:13:07;;;;;;;12.07;9.13;;;6.20;99.90;;;;;;5082980;28;20203;-75
2021/04/28 04:15:34;;;;;;;11.10;8.10;;;6.20;99.90;;;;;;5081857;28;20196;-74
2021/04/28 04:18:01;;;;;;;9.57;7.97;;;6.20;99.90;;;;;;5083175;28;20224;-76
2021/04/28 04:20:27;;;;;;;10.77;8.50;;;6.20;99.90;;;;;;5082045;28;20591;-76
2021/04/28 04:22:54;;;;;;;10.73;8.30;;;6.20;99.90;;;;;;5081926;28;20243;-76
2021/04/28 04:25:20;;;;;;;12.13;8.23;;;6.10;99.90;;;;;;5083177;28;20223;-74
2021/04/28 04:27:46;;;;;;;11.47;7.90;;;6.10;99.90;;;;;;5081983;28;20859;-75
2021/04/28 04:30:13;;;;;;;10.73;8.47;;;6.10;99.90;;;;;;5083366;28;20279;-75
2021/04/28 04:32:40;;;;;;;9.97;8.13;;;6.10;99.90;;;;;;5082984;28;20209;-75
2021/04/28 04:35:08;;;;;;;10.47;7.90;;;6.20;99.90;;;;;;5082555;28;20274;-75
2021/04/28 04:37:35;;;;;;;10.50;8.53;;;6.10;99.90;;;;;;5085199;28;20236;-74
2021/04/28 04:40:03;;;;;;;9.57;8.13;;;6.10;99.90;;;;;;5102980;28;20808;-77
2021/04/28 04:42:29;;;;;;;10.30;7.97;;;6.20;99.90;;;;;;5101920;28;20625;-75
2021/04/28 04:44:55;;;;;;;10.83;7.57;;;6.10;99.90;;;;;;5094262;28;20212;-76
2021/04/28 04:47:22;;;;;;;10.13;8.60;;;6.20;99.90;;;;;;5082916;28;20204;-76
2021/04/28 04:49:49;;;;;;;13.23;7.87;;;6.20;99.90;;;;;;5082532;28;20513;-76
2021/04/28 04:52:15;;;;;;;9.73;7.70;;;6.20;99.90;;;;;;5082218;28;20929;-75
2021/04/28 04:54:41;;;;;;;11.00;7.77;;;6.20;99.90;;;;;;5082558;28;20204;-74
2021/04/28 04:57:08;;;;;;;13.67;8.73;;;6.30;99.90;;;;;;5082361;28;20494;-76
2021/04/28 04:59:34;;;;;;;9.80;8.23;;;6.30;99.90;;;;;;5081703;28;20239;-75
2021/04/28 05:02:00;;;;;;;11.67;7.97;;;6.30;99.90;;;;;;5081888;28;20208;-75
2021/04/28 05:04:27;;;;;;;14.03;8.30;;;6.30;99.90;;;;;;5081750;28;20196;-76
2021/04/28 05:06:54;;;;;;;11.23;8.60;;;6.40;99.90;;;;;;5082520;28;20569;-75
2021/04/28 05:09:20;;;;;;;9.63;7.67;;;6.40;99.90;;;;;;5081916;28;20204;-75
2021/04/28 05:11:47;;;;;;;8.07;7.17;;;6.50;99.90;;;;;;5081486;28;20264;-76
2021/04/28 05:14:13;;;;;;;9.00;7.23;;;6.50;99.90;;;;;;5082560;28;20211;-74
2021/04/28 05:16:40;;;;;;;9.47;7.40;;;6.50;99.90;;;;;;5081770;28;20246;-76
2021/04/28 05:19:07;;;;;;;8.73;7.57;;;6.50;99.90;;;;;;5080956;28;20711;-76
2021/04/28 05:21:34;;;;;;;9.13;8.10;;;6.50;99.90;;;;;;5081568;28;20208;-75
2021/04/28 05:24:01;;;;;;;10.47;8.03;;;6.50;99.90;;;;;;5081643;28;20295;-75
2021/04/28 05:26:27;;;;;;;9.60;7.17;;;6.50;99.90;;;;;;5081859;28;20204;-77
2021/04/28 05:28:54;;;;;;;10.97;8.00;;;6.60;99.90;;;;;;5088289;28;20218;-74
2021/04/28 05:31:20;;;;;;;8.67;7.77;;;6.60;99.90;;;;;;5101798;28;20241;-74
2021/04/28 05:33:48;;;;;;;10.70;7.10;;;6.70;99.90;;;;;;5102199;28;20701;-75
2021/04/28 05:36:14;;;;;;;9.50;6.90;;;6.70;99.90;;;;;;5087822;28;20965;-75
2021/04/28 05:38:40;;;;;;;10.73;7.10;;;6.80;99.90;;;;;;5081407;28;20277;-75
2021/04/28 05:41:07;;;;;;;14.60;7.40;;;6.80;99.90;;;;;;5081583;28;20208;-76
2021/04/28 05:43:34;;;;;;;12.70;7.77;;;6.90;99.90;;;;;;5081090;28;20573;-76
2021/04/28 05:46:01;;;;;;;8.63;7.03;;;6.90;99.90;;;;;;5081383;28;20230;-77
2021/04/28 05:48:28;;;;;;;8.80;7.00;;;6.90;99.90;;;;;;5081581;28;20489;-75
2021/04/28 05:50:55;;;;;;;13.47;8.53;;;6.90;99.90;;;;;;5080814;28;20566;-75
2021/04/28 05:53:22;;;;;;;9.00;6.83;;;7.00;99.90;;;;;;5081076;28;20204;-75
2021/04/28 05:55:48;;;;;;;9.87;6.90;;;7.00;99.90;;;;;;5081526;28;20588;-75
2021/04/28 05:58:16;;;;;;;12.07;6.93;;;7.10;99.90;;;;;;5081373;28;20232;-75
2021/04/28 06:00:42;;;;;;;9.30;7.13;;;7.20;99.90;;;;;;5080363;28;20636;-75
2021/04/28 06:03:08;;;;;;;7.77;6.07;;;7.20;99.90;;;;;;5081949;28;20936;-76
2021/04/28 06:05:35;;;;;;;9.60;6.83;;;7.30;99.90;;;;;;5081207;28;20209;-76
2021/04/28 06:08:01;;;;;;;10.93;7.20;;;7.50;99.90;;;;;;5081346;28;20204;-76
2021/04/28 06:10:27;;;;;;;7.63;6.27;;;7.60;99.90;;;;;;5091461;28;20195;-76
2021/04/28 06:12:54;;;;;;;6.87;5.47;;;7.80;99.90;;;;;;5101630;28;20249;-76
2021/04/28 06:15:21;;;;;;;8.03;5.93;;;8.00;99.90;;;;;;5103391;28;20210;-76
2021/04/28 06:17:47;;;;;;;10.43;6.00;;;8.20;99.90;;;;;;5104969;28;20243;-75
2021/04/28 06:20:16;;;;;;;7.87;5.40;;;8.40;99.90;;;;;;5105201;28;20207;-75
2021/04/28 06:22:43;;;;;;;9.07;5.70;;;8.50;99.90;;;;;;5100918;28;20204;-77
2021/04/28 06:25:11;;;;;;;6.57;4.97;;;8.60;99.90;;;;;;5084844;28;20216;-76
2021/04/28 06:27:38;;;;;;;9.27;5.80;;;8.80;99.90;;;;;;5095644;28;20269;-76
2021/04/28 06:30:07;;;;;;;6.63;5.40;;;9.00;99.90;;;;;;5103305;28;20279;-76
2021/04/28 06:32:34;;;;;;;17.60;5.73;;;9.10;99.90;;;;;;5084002;28;20193;-76
2021/04/28 06:35:00;;;;;;;6.97;5.03;;;9.30;99.90;;;;;;5090845;28;20231;-76
2021/04/28 06:37:27;;;;;;;7.70;5.20;;;9.50;99.90;;;;;;5104255;28;20277;-75
2021/04/28 06:39:53;;;;;;;7.53;5.13;;;9.80;99.90;;;;;;5104510;28;20203;-75
2021/04/28 06:42:19;;;;;;;5.30;4.80;;;10.00;99.90;;;;;;5103742;28;20236;-75
2021/04/28 06:44:47;;;;;;;7.83;5.17;;;10.10;99.90;;;;;;5084961;28;20552;-76
2021/04/28 06:47:14;;;;;;;7.00;5.57;;;10.30;99.90;;;;;;5086539;28;20207;-75
2021/04/28 06:49:41;;;;;;;6.67;5.17;;;10.50;99.90;;;;;;5103600;28;20200;-75
2021/04/28 06:52:07;;;;;;;7.97;5.60;;;10.60;99.90;;;;;;5104809;28;20569;-76
2021/04/28 06:54:33;;;;;;;9.03;5.30;;;10.70;99.90;;;;;;5103986;28;20200;-76
2021/04/28 06:56:59;;;;;;;7.53;5.00;;;10.70;99.90;;;;;;5088626;28;20215;-76
2021/04/28 06:59:26;;;;;;;8.20;5.33;;;11.00;99.90;;;;;;5082626;28;20232;-76
2021/04/28 07:01:53;;;;;;;5.50;4.73;;;11.20;99.90;;;;;;5083796;28;20200;-76
2021/04/28 07:07:41;;;;;;;8.03;5.43;;;12.10;99.90;;;;;;5046906;28;20200;-74
2021/04/28 07:10:08;;;;;;;8.50;5.00;;;12.30;99.90;;;;;;5083064;28;20204;-77
2021/04/28 07:12:34;;;;;;;6.80;5.10;;;12.50;99.90;;;;;;5083579;28;20208;-77
2021/04/28 07:15:01;;;;;;;8.07;5.17;;;12.60;99.90;;;;;;5083637;28;20203;-78
2021/04/28 07:17:27;;;;;;;16.03;4.93;;;12.60;99.90;;;;;;5082960;28;20209;-77
2021/04/28 07:19:54;;;;;;;5.27;4.30;;;12.60;99.90;;;;;;5083404;28;20333;-77
2021/04/28 07:26:02;;;;;;;11.00;5.43;;;13.00;99.90;;;;;;4952068;28;20274;-74
2021/04/28 07:28:28;;;;;;;7.27;4.40;;;13.40;99.90;;;;;;5079446;28;20211;-77
2021/04/28 07:30:55;;;;;;;7.00;4.33;;;13.50;99.90;;;;;;5083129;28;20200;-77
2021/04/28 07:33:21;;;;;;;6.30;4.13;;;13.70;99.90;;;;;;5083429;28;20861;-76
2021/04/28 07:35:47;;;;;;;8.53;4.53;;;13.90;99.90;;;;;;5083063;28;20225;-76
2021/04/28 07:38:14;;;;;;;6.23;4.17;;;14.00;99.90;;;;;;5082352;28;20232;-77
2021/04/28 07:40:40;;;;;;;7.77;5.20;;;13.90;99.90;;;;;;5083449;28;20588;-76
2021/04/28 07:43:07;;;;;;;4.77;3.97;;;13.90;99.90;;;;;;5083406;28;20236;-76
2021/04/28 07:45:35;;;;;;;5.40;4.47;;;14.00;99.90;;;;;;5082187;28;20212;-76
2021/04/28 07:48:05;;;;;;;4.57;4.07;;;14.10;99.90;;;;;;5083171;28;20547;-78
2021/04/28 07:50:31;;;;;;;4.70;4.10;;;13.90;99.90;;;;;;5082977;28;20570;-76
2021/04/28 07:52:57;;;;;;;4.57;4.00;;;14.00;99.90;;;;;;5082562;28;20208;-77
2021/04/28 07:55:24;;;;;;;8.03;5.00;;;14.10;99.90;;;;;;5083180;28;20282;-77
2021/04/28 07:57:50;;;;;;;6.17;4.27;;;14.20;99.90;;;;;;5082318;28;20224;-77
2021/04/28 08:00:18;;;;;;;5.77;4.43;;;14.30;99.90;;;;;;5081804;28;20207;-77
2021/04/28 08:02:45;;;;;;;8.33;4.87;;;14.60;99.90;;;;;;5082056;28;20211;-77
2021/04/28 08:05:12;;;;;;;6.53;4.17;;;15.00;99.90;;;;;;5082561;28;20602;-77
2021/04/28 08:07:38;;;;;;;5.40;4.30;;;14.70;99.90;;;;;;5081399;28;20205;-77
2021/04/28 08:10:05;;;;;;;5.20;3.97;;;15.00;99.90;;;;;;5082701;28;20211;-77
2021/04/28 08:12:32;;;;;;;6.90;4.43;;;15.10;99.90;;;;;;5082647;28;20196;-77
2021/04/28 08:14:58;;;;;;;5.33;4.10;;;15.20;99.90;;;;;;5081939;28;20208;-78
2021/04/28 08:17:25;;;;;;;6.70;4.07;;;15.10;99.90;;;;;;5096330;28;20199;-78
2021/04/28 08:19:52;;;;;;;6.23;4.27;;;15.10;99.90;;;;;;5101913;28;20223;-77
2021/04/28 08:22:18;;;;;;;5.30;4.13;;;15.10;99.90;;;;;;5099039;28;20208;-77
2021/04/28 08:24:44;;;;;;;9.23;5.10;;;15.30;99.90;;;;;;5102655;28;20257;-78
2021/04/28 08:27:10;;;;;;;5.13;4.50;;;15.60;99.90;;;;;;5101782;28;20196;-78
2021/04/28 08:29:37;;;;;;;7.53;5.60;;;15.80;99.90;;;;;;5102302;28;20206;-78
2021/04/28 08:32:03;;;;;;;6.63;4.77;;;16.00;99.90;;;;;;5088972;28;20204;-77
2021/04/28 08:34:31;;;;;;;6.20;4.43;;;15.90;99.90;;;;;;5081602;28;20217;-76
2021/04/28 08:36:57;;;;;;;4.40;3.73;;;16.00;99.90;;;;;;5084055;28;20204;-77
2021/04/28 08:39:24;;;;;;;4.77;4.20;;;16.30;99.90;;;;;;5102827;28;20564;-77
2021/04/28 08:41:51;;;;;;;4.55;3.92;;;16.50;99.90;;;;;;5102202;28;20908;-75
2021/04/28 08:44:19;;;;;;;9.43;4.90;;;16.40;99.90;;;;;;5084629;28;20215;-76
2021/04/28 08:46:46;;;;;;;4.43;4.03;;;16.40;99.90;;;;;;5082273;28;20208;-75
2021/04/28 08:49:12;;;;;;;8.32;4.78;;;16.60;99.90;;;;;;5082229;28;20885;-76
2021/04/28 08:51:39;;;;;;;6.60;4.83;;;16.60;99.90;;;;;;5082611;28;20212;-77
2021/04/28 08:54:06;;;;;;;4.87;4.40;;;16.10;99.90;;;;;;5082661;28;20206;-76
2021/04/28 08:56:33;;;;;;;5.93;4.90;;;16.30;99.90;;;;;;5081342;28;20196;-76
2021/04/28 08:59:04;;;;;;;6.22;4.22;;;16.60;99.90;;;;;;5082545;28;20221;-76
2021/04/28 09:01:32;;;;;;;8.27;4.70;;;16.60;99.90;;;;;;5081872;28;20208;-76
2021/04/28 09:03:59;;;;;;;5.13;4.32;;;17.00;99.90;;;;;;5082412;28;20541;-76
2021/04/28 09:06:30;;;;;;;9.15;4.75;;;17.00;99.90;;;;;;5082513;28;20522;-75
2021/04/28 09:09:05;;;;;;;6.05;4.50;;;16.80;99.90;;;;;;5082776;28;20283;-81
2021/04/28 09:11:45;;;;;;;5.35;4.80;;;16.60;99.90;;;;;;5102406;28;20195;-78
2021/04/28 09:14:15;;;;;;;6.57;4.88;;;16.40;99.90;;;;;;5100510;28;20199;-74
2021/04/28 09:16:43;;;;;;;5.38;4.22;;;16.20;99.90;;;;;;5081277;28;20535;-74
2021/04/28 09:19:24;;;;;;;6.50;4.57;;;16.30;99.90;;;;;;5081581;28;20228;-74
2021/04/28 09:21:53;;;;;;;8.50;4.63;;;16.70;99.90;;;;;;5081646;28;20655;-75
2021/04/28 09:24:22;;;;;;;6.25;5.15;;;16.50;99.90;;;;;;5081448;28;20204;-74
2021/04/28 09:26:49;;;;;;;8.97;4.93;;;16.40;99.90;;;;;;5081517;28;20824;-77
2021/04/28 09:29:20;;;;;;;5.72;4.90;;;16.20;99.90;;;;;;5082171;28;20201;-77
2021/04/28 09:32:01;;;;;;;5.30;4.80;;;16.30;99.90;;;;;;5081304;28;20585;-77
2021/04/28 09:34:30;;;;;;;7.07;4.95;;;16.30;99.90;;;;;;5083134;28;20227;-76
2021/04/28 09:37:01;;;;;;;5.77;5.10;;;16.20;99.90;;;;;;5081901;28;20933;-77
2021/04/28 09:39:29;;;;;;;7.47;5.50;;;16.20;99.90;;;;;;5081401;28;20969;-78
2021/04/28 09:41:57;;;;;;;7.93;5.40;;;16.20;99.90;;;;;;5082477;28;20528;-77
2021/04/28 09:44:29;;;;;;;6.50;5.20;;;16.20;99.90;;;;;;5080253;28;20289;-77
2021/04/28 09:46:57;;;;;;;8.07;5.97;;;16.00;99.90;;;;;;5081291;28;20232;-77
2021/04/28 09:49:24;;;;;;;5.70;5.00;;;16.10;99.90;;;;;;5089637;28;20201;-76
2021/04/28 09:51:56;;;;;;;7.70;5.03;;;16.30;99.90;;;;;;5091890;28;20314;-75
2021/04/28 09:54:29;;;;;;;7.78;4.70;;;16.50;99.90;;;;;;5105781;28;20571;-79
2021/04/28 09:56:57;;;;;;;7.88;5.63;;;16.70;99.90;;;;;;5097034;28;20516;-77
2021/04/28 09:59:40;;;;;;;7.07;5.32;;;16.60;99.90;;;;;;5085685;28;20223;-82
2021/04/28 10:02:07;;;;;;;8.35;5.32;;;16.70;99.90;;;;;;5086447;28;20269;-77
2021/04/28 10:04:33;;;;;;;6.50;4.57;;;16.60;99.90;;;;;;5084724;28;20212;-80
2021/04/28 10:07:00;;;;;;;5.22;4.70;;;16.50;99.90;;;;;;5085472;28;20587;-77
2021/04/28 10:09:29;;;;;;;6.88;5.30;;;16.60;99.90;;;;;;5085065;28;20212;-79
2021/04/28 10:11:57;;;;;;;8.30;4.97;;;16.80;99.90;;;;;;5084501;28;20201;-74
2021/04/28 10:14:25;;;;;;;8.15;5.07;;;16.70;99.90;;;;;;5084260;28;20829;-75
2021/04/28 10:16:54;;;;;;;5.68;5.00;;;16.70;99.90;;;;;;5085198;28;20205;-79
2021/04/28 10:19:23;;;;;;;7.38;5.35;;;16.70;99.90;;;;;;5084861;28;20259;-76
2021/04/28 10:21:50;;;;;;;7.07;5.00;;;16.90;99.90;;;;;;5084456;28;20657;-78
2021/04/28 10:24:18;;;;;;;7.53;5.00;;;16.90;99.90;;;;;;5084915;28;20672;-76
2021/04/28 10:26:45;;;;;;;8.70;5.38;;;16.90;99.90;;;;;;5084210;28;20196;-76
2021/04/28 10:29:14;;;;;;;5.75;4.90;;;17.10;99.90;;;;;;5084857;28;20219;-77
2021/04/28 10:31:41;;;;;;;8.02;6.13;;;17.30;99.90;;;;;;5084999;28;20192;-75
2021/04/28 10:34:08;;;;;;;6.20;4.93;;;17.40;99.90;;;;;;5084393;28;20894;-78
2021/04/28 10:36:35;;;;;;;6.80;5.68;;;17.20;99.90;;;;;;5084659;28;20204;-77
2021/04/28 10:39:02;;;;;;;6.57;5.57;;;17.20;99.90;;;;;;5084928;28;20220;-77
2021/04/28 10:41:39;;;;;;;6.78;4.95;;;17.20;99.90;;;;;;5083962;28;20208;-77
2021/04/28 10:44:07;;;;;;;5.97;5.00;;;17.30;99.90;;;;;;5084751;28;20203;-78
2021/04/28 10:46:34;;;;;;;8.40;5.75;;;17.40;99.90;;;;;;5084034;28;20766;-77
2021/04/28 10:49:16;;;;;;;6.75;5.57;;;17.70;99.90;;;;;;5084126;28;20212;-77
2021/04/28 10:51:45;;;;;;;5.60;4.97;;;17.90;99.90;;;;;;5084251;28;20224;-76
2021/04/28 10:54:25;;;;;;;6.13;5.53;;;17.90;99.90;;;;;;5084180;28;20237;-77
2021/04/28 10:57:02;;;;;;;7.20;5.65;;;17.60;99.90;;;;;;5084175;28;20203;-77
2021/04/28 10:59:32;;;;;;;7.82;5.00;;;17.50;99.90;;;;;;5083413;28;20927;-78
2021/04/28 11:02:07;;;;;;;7.75;5.43;;;17.70;99.90;;;;;;5083292;28;20540;-76
2021/04/28 11:04:34;;;;;;;7.00;5.20;;;17.70;99.90;;;;;;5084459;28;20215;-80
2021/04/28 11:07:00;;;;;;;8.02;5.60;;;17.60;99.90;;;;;;5084322;28;20196;-76
2021/04/28 11:09:27;;;;;;;6.55;5.18;;;17.60;99.90;;;;;;5101915;28;20230;-74
2021/04/28 11:11:58;;;;;;;6.13;5.53;;;17.70;99.90;;;;;;5104402;28;20203;-75
2021/04/28 11:14:30;;;;;;;6.72;5.97;;;17.90;99.90;;;;;;5090404;28;20621;-76
2021/04/28 11:16:58;;;;;;;7.45;6.65;;;18.00;99.90;;;;;;5083674;28;20193;-77
2021/04/28 11:19:27;;;;;;;8.43;5.75;;;17.90;99.90;;;;;;5089513;28;20235;-77
2021/04/28 11:22:28;;;;;;;10.35;5.60;;;17.70;99.90;;;;;;5104285;28;20204;-79
2021/04/28 11:25:01;;;;;;;8.13;5.70;;;17.80;99.90;;;;;;5020851;28;20198;-77
2021/04/28 11:28:08;;;;;;;8.13;6.05;;;17.80;99.90;;;;;;5021287;28;20293;-80
2021/04/28 11:30:38;;;;;;;7.78;5.05;;;18.00;99.90;;;;;;5064571;28;20291;-79
2021/04/28 11:33:34;;;;;;;9.02;6.00;;;18.10;99.90;;;;;;5090870;28;20211;-78
2021/04/28 11:36:17;;;;;;;8.50;6.88;;;18.10;99.90;;;;;;5106309;28;20576;-78
2021/04/28 11:38:54;;;;;;;9.35;6.13;;;18.20;99.90;;;;;;5104095;28;20620;-76
2021/04/28 11:41:23;;;;;;;8.85;6.63;;;18.00;99.90;;;;;;5102959;28;20203;-80
2021/04/28 11:43:53;;;;;;;7.63;6.68;;;18.00;99.90;;;;;;5104806;28;20240;-77
2021/04/28 11:46:21;;;;;;;7.45;6.50;;;17.80;99.90;;;;;;5104881;28;21047;-77
2021/04/28 11:48:49;;;;;;;10.30;6.80;;;17.90;99.90;;;;;;5104918;28;20228;-76
2021/04/28 11:51:17;;;;;;;7.55;6.75;;;18.00;99.90;;;;;;5102638;28;20234;-77
2021/04/28 11:53:49;;;;;;;7.55;6.82;;;18.00;99.90;;;;;;5093429;28;20192;-76
2021/04/28 11:56:31;;;;;;;9.07;6.60;;;18.10;99.90;;;;;;5093114;28;20204;-74
2021/04/28 11:58:59;;;;;;;9.77;6.95;;;18.20;99.90;;;;;;5095023;28;20249;-77
2021/04/28 12:01:27;;;;;;;8.95;7.05;;;18.40;99.90;;;;;;5092595;28;20207;-78
2021/04/28 12:03:56;;;;;;;9.45;6.30;;;18.50;99.90;;;;;;5093211;28;20214;-77
2021/04/28 12:06:35;;;;;;;7.22;6.50;;;18.50;99.90;;;;;;5102839;28;20592;-77
2021/04/28 12:09:17;;;;;;;9.27;6.88;;;18.20;99.90;;;;;;5088603;28;20534;-77
2021/04/28 12:11:46;;;;;;;10.65;7.60;;;18.30;99.90;;;;;;5082113;28;20208;-75
2021/04/28 12:14:13;;;;;;;10.38;6.60;;;18.30;99.90;;;;;;5081974;28;20201;-76
2021/04/28 12:16:41;;;;;;;8.63;7.22;;;18.40;99.90;;;;;;5082122;28;20205;-78
2021/04/28 12:19:09;;;;;;;9.18;7.15;;;18.50;99.90;;;;;;5098951;28;20215;-77
2021/04/28 12:21:36;;;;;;;8.55;7.22;;;18.60;99.90;;;;;;5100399;28;20203;-78
2021/04/28 12:24:03;;;;;;;7.70;6.85;;;18.70;99.90;;;;;;5082395;28;20205;-77
2021/04/28 12:26:30;;;;;;;7.63;6.88;;;18.80;99.90;;;;;;5080451;28;20245;-78
2021/04/28 12:28:56;;;;;;;8.90;8.00;;;19.00;99.90;;;;;;5082437;28;20196;-77
2021/04/28 12:31:45;;;;;;;8.70;7.85;;;19.10;99.90;;;;;;5082516;28;20224;-78
2021/04/28 12:34:17;;;;;;;7.97;7.18;;;19.20;99.90;;;;;;5082385;28;20236;-77
2021/04/28 12:36:44;;;;;;;10.07;7.53;;;19.30;99.90;;;;;;5082553;28;20262;-77
2021/04/28 12:39:11;;;;;;;9.70;7.53;;;19.20;99.90;;;;;;5082566;28;20227;-77
2021/04/28 12:41:37;;;;;;;11.15;7.15;;;19.00;99.90;;;;;;5081024;28;20204;-77
2021/04/28 12:44:04;;;;;;;10.07;7.50;;;18.80;99.90;;;;;;5098175;28;20261;-79
2021/04/28 12:46:31;;;;;;;8.40;7.43;;;18.70;99.90;;;;;;5102241;28;20199;-77
2021/04/28 12:49:00;;;;;;;14.02;8.27;;;18.50;99.90;;;;;;5101385;28;20215;-77
2021/04/28 12:51:28;;;;;;;12.00;8.05;;;18.40;99.90;;;;;;5102081;28;20220;-76
2021/04/28 12:53:55;;;;;;;10.18;8.05;;;18.40;99.90;;;;;;5081913;28;20973;-76
2021/04/28 12:56:22;;;;;;;10.52;7.90;;;18.50;99.90;;;;;;5081515;28;20208;-78
2021/04/28 12:58:50;;;;;;;9.10;7.10;;;18.50;99.90;;;;;;5081911;28;20221;-76
2021/04/28 13:01:17;;;;;;;8.88;7.90;;;18.40;99.90;;;;;;5081514;28;20246;-76